Time;durP1;ratioP1;P1;durP2;ratioP2;P2;SDS_P1;SDS_P2;PMS_P1;PMS_P2;Temp;Humidity;BMP_temperature;BMP_pressure;BME280_temperature;BME280_humidity;BME280_pressure;Samples;Min_cycle;Max_cycle;Signal;HPM_P1;HPM_P2
2023/04/01 00:00:02;;;;;;;;;;;;;;;;;;4423026;32;20014;-81
2023/04/01 00:02:27;;;;;;;;;;;;;;;;;;4420983;32;20006;-81
2023/04/01 00:04:52;;;;;;;;;;;;;;;;;;4421931;32;19942;-82
2023/04/01 00:07:17;;;;;;;;;;;;;;;;;;4420643;32;19972;-81
2023/04/01 00:09:42;;;;;;;;;;;;;;;;;;4420359;32;19932;-82
2023/04/01 00:12:07;;;;;;;;;;;;;;;;;;4420583;32;19978;-82
2023/04/01 00:14:32;;;;;;;;;;;;;;;;;;4420524;32;19982;-83
2023/04/01 00:16:57;;;;;;;;;;;;;;;;;;4422078;32;19945;-83
2023/04/01 00:19:23;;;;;;;;;;;;;;;;;;4420462;32;20356;-83
2023/04/01 00:21:48;;;;;;;;;;;;;;;;;;4421022;32;19941;-83
2023/04/01 00:24:13;;;;;;;;;;;;;;;;;;4421526;32;19978;-84
2023/04/01 00:26:38;;;;;;;;;;;;;;;;;;4422629;32;20001;-84
2023/04/01 00:29:05;;;;;;;;;;;;;;;;;;4430301;32;19955;-84
2023/04/01 00:31:30;;;;;;;;;;;;;;;;;;4435731;32;19937;-85
2023/04/01 00:33:56;;;;;;;;;;;;;;;;;;4430498;32;19947;-84
2023/04/01 00:36:22;;;;;;;;;;;;;;;;;;4424616;32;20301;-85
2023/04/01 00:38:48;;;;;;;;;;;;;;;;;;4423948;32;19985;-84
2023/04/01 00:41:14;;;;;;;;;;;;;;;;;;4422251;32;19949;-85
2023/04/01 00:43:40;;;;;;;;;;;;;;;;;;4420865;32;19987;-84
2023/04/01 00:46:05;;;;;;;;;;;;;;;;;;4420702;32;19961;-84
2023/04/01 00:48:30;;;;;;;;;;;;;;;;;;4422672;32;19941;-81
2023/04/01 00:50:55;;;;;;;;;;;;;;;;;;4422411;32;19933;-82
2023/04/01 00:53:20;;;;;;;;;;;;;;;;;;4425934;32;19937;-83
2023/04/01 00:55:45;;;;;;;;;;;;;;;;;;4423426;32;19945;-81
2023/04/01 00:58:11;;;;;;;;;;;;;;;;;;4421028;32;19937;-81
2023/04/01 01:00:36;;;;;;;;;;;;;;;;;;4420719;32;19984;-81
2023/04/01 01:03:02;;;;;;;;;;;;;;;;;;4420282;32;19937;-80
2023/04/01 01:05:27;;;;;;;;;;;;;;;;;;4420411;32;19969;-80
2023/04/01 01:07:52;;;;;;;;;;;;;;;;;;4421426;32;19949;-80
2023/04/01 01:10:17;;;;;;;;;;;;;;;;;;4420373;32;20001;-81
2023/04/01 01:12:46;;;;;;;;;;;;;;;;;;4420443;32;19982;-79
2023/04/01 01:15:11;;;;;;;;;;;;;;;;;;4420079;32;19970;-79
2023/04/01 01:17:36;;;;;;;;;;;;;;;;;;4427044;32;19988;-79
2023/04/01 01:20:01;;;;;;;;;;;;;;;;;;4425201;32;20388;-79
2023/04/01 01:22:26;;;;;;;;;;;;;;;;;;4427219;32;19971;-77
2023/04/01 01:24:51;;;;;;;;;;;;;;;;;;4425527;32;20274;-78
2023/04/01 01:27:16;;;;;;;;;;;;;;;;;;4425515;32;20014;-77
2023/04/01 01:29:42;;;;;;;;;;;;;;;;;;4424775;32;20000;-78
2023/04/01 01:32:07;;;;;;;;;;;;;;;;;;4425617;32;20009;-77
2023/04/01 01:34:32;;;;;;;;;;;;;;;;;;4426031;32;20231;-77
2023/04/01 01:36:57;;;;;;;;;;;;;;;;;;4426735;32;20390;-78
2023/04/01 01:39:26;;;;;;;;;;;;;;;;;;4425805;32;20266;-77
2023/04/01 01:41:51;;;;;;;;;;;;;;;;;;4424139;32;19933;-78
2023/04/01 01:44:16;;;;;;;;;;;;;;;;;;4426292;32;20326;-77
2023/04/01 01:46:41;;;;;;;;;;;;;;;;;;4426164;32;19971;-78
2023/04/01 01:49:06;;;;;;;;;;;;;;;;;;4426238;32;19941;-78
2023/04/01 01:51:31;;;;;;;;;;;;;;;;;;4426611;32;19933;-78
2023/04/01 01:53:57;;;;;;;;;;;;;;;;;;4419795;32;19944;-78
2023/04/01 01:56:22;;;;;;;;;;;;;;;;;;4397051;32;19945;-78
2023/04/01 01:58:47;;;;;;;;;;;;;;;;;;4397951;32;19972;-78
2023/04/01 02:01:12;;;;;;;;;;;;;;;;;;4394977;32;19938;-78
2023/04/01 02:03:37;;;;;;;;;;;;;;;;;;4394143;32;20120;-78
2023/04/01 02:06:02;;;;;;;;;;;;;;;;;;4394816;32;19975;-77
2023/04/01 02:08:28;;;;;;;;;;;;;;;;;;4398261;32;20374;-78
2023/04/01 02:10:53;;;;;;;;;;;;;;;;;;4426210;32;19955;-79
2023/04/01 02:13:18;;;;;;;;;;;;;;;;;;4424424;32;19972;-79
2023/04/01 02:15:43;;;;;;;;;;;;;;;;;;4432450;32;19997;-79
2023/04/01 02:18:08;;;;;;;;;;;;;;;;;;4442099;32;20323;-79
2023/04/01 02:20:33;;;;;;;;;;;;;;;;;;4457451;32;20214;-77
2023/04/01 02:22:59;;;;;;;;;;;;;;;;;;4456808;32;20378;-77
2023/04/01 02:25:24;;;;;;;;;;;;;;;;;;4442817;32;19978;-78
2023/04/01 02:27:50;;;;;;;;;;;;;;;;;;4454345;32;19940;-77
2023/04/01 02:30:15;;;;;;;;;;;;;;;;;;4455054;32;19936;-78
2023/04/01 02:32:40;;;;;;;;;;;;;;;;;;4453714;32;19948;-78
2023/04/01 02:35:06;;;;;;;;;;;;;;;;;;4453694;32;19951;-77
2023/04/01 02:37:31;;;;;;;;;;;;;;;;;;4439474;32;19940;-78
2023/04/01 02:39:56;;;;;;;;;;;;;;;;;;4439891;32;19936;-77
2023/04/01 02:42:21;;;;;;;;;;;;;;;;;;4455142;32;19965;-77
2023/04/01 02:44:46;;;;;;;;;;;;;;;;;;4453888;32;19932;-77
2023/04/01 02:47:11;;;;;;;;;;;;;;;;;;4440165;32;19996;-77
2023/04/01 02:49:36;;;;;;;;;;;;;;;;;;4439771;32;19940;-76
2023/04/01 02:52:01;;;;;;;;;;;;;;;;;;4453370;32;19992;-76
2023/04/01 02:54:26;;;;;;;;;;;;;;;;;;4454655;32;19966;-77
2023/04/01 02:56:52;;;;;;;;;;;;;;;;;;4439203;32;19940;-76
2023/04/01 02:59:17;;;;;;;;;;;;;;;;;;4439190;32;19952;-76
2023/04/01 03:01:42;;;;;;;;;;;;;;;;;;4453217;32;19947;-78
2023/04/01 03:04:07;;;;;;;;;;;;;;;;;;4453617;32;19988;-77
2023/04/01 03:06:32;;;;;;;;;;;;;;;;;;4439238;32;20392;-78
2023/04/01 03:08:58;;;;;;;;;;;;;;;;;;4453081;32;19983;-78
2023/04/01 03:11:23;;;;;;;;;;;;;;;;;;4453214;32;19932;-78
2023/04/01 03:13:48;;;;;;;;;;;;;;;;;;4454520;32;19976;-79
2023/04/01 03:16:13;;;;;;;;;;;;;;;;;;4429731;32;19953;-78
2023/04/01 03:18:38;;;;;;;;;;;;;;;;;;4413973;32;20357;-79
2023/04/01 03:21:03;;;;;;;;;;;;;;;;;;4430074;32;19940;-79
2023/04/01 03:23:29;;;;;;;;;;;;;;;;;;4413012;32;19937;-80
2023/04/01 03:25:54;;;;;;;;;;;;;;;;;;4409015;32;19974;-79
2023/04/01 03:28:19;;;;;;;;;;;;;;;;;;4422442;32;19945;-79
2023/04/01 03:30:44;;;;;;;;;;;;;;;;;;4408837;32;20334;-78
2023/04/01 03:33:09;;;;;;;;;;;;;;;;;;4408111;32;19947;-76
2023/04/01 03:35:35;;;;;;;;;;;;;;;;;;4423539;32;20254;-77
2023/04/01 03:38:00;;;;;;;;;;;;;;;;;;4410008;32;20261;-77
2023/04/01 03:40:26;;;;;;;;;;;;;;;;;;4421409;32;19947;-77
2023/04/01 03:42:51;;;;;;;;;;;;;;;;;;4421898;32;19937;-77
2023/04/01 03:45:17;;;;;;;;;;;;;;;;;;4422309;32;19941;-77
2023/04/01 03:47:42;;;;;;;;;;;;;;;;;;4407780;32;19957;-77
2023/04/01 03:50:07;;;;;;;;;;;;;;;;;;4407835;32;19941;-77
2023/04/01 03:52:32;;;;;;;;;;;;;;;;;;4408012;32;19937;-78
2023/04/01 03:54:57;;;;;;;;;;;;;;;;;;4407800;32;20318;-78
2023/04/01 03:57:22;;;;;;;;;;;;;;;;;;4421585;32;20001;-78
2023/04/01 03:59:47;;;;;;;;;;;;;;;;;;4422145;32;19952;-78
2023/04/01 04:02:12;;;;;;;;;;;;;;;;;;4422841;32;19933;-77
2023/04/01 04:04:37;;;;;;;;;;;;;;;;;;4425165;32;19941;-77
2023/04/01 04:07:03;;;;;;;;;;;;;;;;;;4429280;32;19955;-77
2023/04/01 04:09:28;;;;;;;;;;;;;;;;;;4423250;32;20410;-78
2023/04/01 04:11:53;;;;;;;;;;;;;;;;;;4452665;32;19961;-79
2023/04/01 04:14:18;;;;;;;;;;;;;;;;;;4452927;32;19941;-78
2023/04/01 04:16:43;;;;;;;;;;;;;;;;;;4438770;32;19953;-78
2023/04/01 04:19:08;;;;;;;;;;;;;;;;;;4438744;32;19980;-78
2023/04/01 04:21:33;;;;;;;;;;;;;;;;;;4439466;32;19988;-78
2023/04/01 04:23:58;;;;;;;;;;;;;;;;;;4440027;32;19941;-78
2023/04/01 04:26:23;;;;;;;;;;;;;;;;;;4438961;32;19951;-79
2023/04/01 04:28:48;;;;;;;;;;;;;;;;;;4438982;32;19952;-80
2023/04/01 04:31:14;;;;;;;;;;;;;;;;;;4452273;32;19936;-80
2023/04/01 04:33:39;;;;;;;;;;;;;;;;;;4439743;32;20249;-80
2023/04/01 04:36:04;;;;;;;;;;;;;;;;;;4441132;32;19941;-80
2023/04/01 04:38:29;;;;;;;;;;;;;;;;;;4440987;32;19977;-80
2023/04/01 04:40:54;;;;;;;;;;;;;;;;;;4455895;32;19933;-80
2023/04/01 04:43:20;;;;;;;;;;;;;;;;;;4441470;32;19956;-81
2023/04/01 04:45:45;;;;;;;;;;;;;;;;;;4438856;32;20321;-81
2023/04/01 04:48:10;;;;;;;;;;;;;;;;;;4452509;32;20313;-81
2023/04/01 04:50:35;;;;;;;;;;;;;;;;;;4437847;32;19932;-81
2023/04/01 04:53:01;;;;;;;;;;;;;;;;;;4452720;32;20004;-81
2023/04/01 04:55:26;;;;;;;;;;;;;;;;;;4438030;32;19937;-81
2023/04/01 04:57:51;;;;;;;;;;;;;;;;;;4437804;32;19948;-82
2023/04/01 05:00:16;;;;;;;;;;;;;;;;;;4438162;32;19941;-81
2023/04/01 05:02:41;;;;;;;;;;;;;;;;;;4452298;32;20263;-80
2023/04/01 05:05:06;;;;;;;;;;;;;;;;;;4453129;32;19973;-82
2023/04/01 05:07:31;;;;;;;;;;;;;;;;;;4438665;32;20022;-81
2023/04/01 05:09:56;;;;;;;;;;;;;;;;;;4453839;32;20248;-81
2023/04/01 05:12:21;;;;;;;;;;;;;;;;;;4453726;32;19971;-81
2023/04/01 05:14:48;;;;;;;;;;;;;;;;;;4438679;32;20321;-82
2023/04/01 05:17:13;;;;;;;;;;;;;;;;;;4439617;32;19947;-82
2023/04/01 05:19:38;;;;;;;;;;;;;;;;;;4438034;32;20348;-82
2023/04/01 05:22:03;;;;;;;;;;;;;;;;;;4438256;32;19992;-82
2023/04/01 05:24:28;;;;;;;;;;;;;;;;;;4453285;32;19986;-83
2023/04/01 05:26:53;;;;;;;;;;;;;;;;;;4438291;32;19955;-82
2023/04/01 05:29:19;;;;;;;;;;;;;;;;;;4454496;32;19950;-83
2023/04/01 05:31:44;;;;;;;;;;;;;;;;;;4441228;32;19992;-83
2023/04/01 05:34:10;;;;;;;;;;;;;;;;;;4452899;32;20271;-82
2023/04/01 05:36:35;;;;;;;;;;;;;;;;;;4438029;32;20313;-84
2023/04/01 05:39:00;;;;;;;;;;;;;;;;;;4437773;32;19944;-82
2023/04/01 05:41:25;;;;;;;;;;;;;;;;;;4438107;32;19937;-82
2023/04/01 05:43:50;;;;;;;;;;;;;;;;;;4437754;32;20024;-82
2023/04/01 05:46:15;;;;;;;;;;;;;;;;;;4437642;32;19944;-82
2023/04/01 05:48:41;;;;;;;;;;;;;;;;;;4438370;32;19973;-82
2023/04/01 05:51:06;;;;;;;;;;;;;;;;;;4413789;32;19948;-82
2023/04/01 05:53:31;;;;;;;;;;;;;;;;;;4407867;32;20287;-81
2023/04/01 05:55:56;;;;;;;;;;;;;;;;;;4419212;32;19930;-82
2023/04/01 05:58:21;;;;;;;;;;;;;;;;;;4410658;32;20273;-83
2023/04/01 06:00:46;;;;;;;;;;;;;;;;;;4435778;32;19940;-83
2023/04/01 06:03:11;;;;;;;;;;;;;;;;;;4432551;32;19947;-82
2023/04/01 06:05:36;;;;;;;;;;;;;;;;;;4434885;32;19963;-82
2023/04/01 06:08:04;;;;;;;;;;;;;;;;;;4434763;32;19940;-81
2023/04/01 06:10:30;;;;;;;;;;;;;;;;;;4428772;32;19917;-85
2023/04/01 06:12:55;;;;;;;;;;;;;;;;;;4421934;32;20333;-87
2023/04/01 06:15:20;;;;;;;;;;;;;;;;;;4413549;32;20272;-86
2023/04/01 06:17:45;;;;;;;;;;;;;;;;;;4427050;32;19994;-87
2023/04/01 06:20:10;;;;;;;;;;;;;;;;;;4412528;32;19947;-88
2023/04/01 06:22:37;;;;;;;;;;;;;;;;;;4425645;32;19945;-83
2023/04/01 06:25:05;;;;;;;;;;;;;;;;;;4440537;32;19948;-81
2023/04/01 06:27:30;;;;;;;;;;;;;;;;;;4415880;32;19977;-82
2023/04/01 06:29:56;;;;;;;;;;;;;;;;;;4417188;32;19933;-82
2023/04/01 06:32:21;;;;;;;;;;;;;;;;;;4416864;32;19937;-83
2023/04/01 06:34:48;;;;;;;;;;;;;;;;;;4428229;32;20358;-82
2023/04/01 06:37:13;;;;;;;;;;;;;;;;;;4416891;32;19952;-83
2023/04/01 06:39:38;;;;;;;;;;;;;;;;;;4410090;32;19983;-83
2023/04/01 06:42:04;;;;;;;;;;;;;;;;;;4410751;32;19937;-83
2023/04/01 06:44:29;;;;;;;;;;;;;;;;;;4413399;32;19940;-82
2023/04/01 06:46:54;;;;;;;;;;;;;;;;;;4432008;32;19945;-83
2023/04/01 06:49:19;;;;;;;;;;;;;;;;;;4410093;32;19937;-83
2023/04/01 06:51:45;;;;;;;;;;;;;;;;;;4409586;32;19937;-81
2023/04/01 06:54:10;;;;;;;;;;;;;;;;;;4410417;32;19948;-82
2023/04/01 06:56:36;;;;;;;;;;;;;;;;;;4423465;32;19933;-82
2023/04/01 06:59:01;;;;;;;;;;;;;;;;;;4419811;32;20268;-82
2023/04/01 07:01:26;;;;;;;;;;;;;;;;;;4424597;32;20358;-82
2023/04/01 07:03:51;;;;;;;;;;;;;;;;;;4425165;32;19980;-83
2023/04/01 07:06:17;;;;;;;;;;;;;;;;;;4424487;32;19980;-80
2023/04/01 07:08:42;;;;;;;;;;;;;;;;;;4438382;32;19940;-81
2023/04/01 07:11:08;;;;;;;;;;;;;;;;;;4424229;32;19969;-82
2023/04/01 07:13:33;;;;;;;;;;;;;;;;;;4424939;32;20273;-82
2023/04/01 07:15:58;;;;;;;;;;;;;;;;;;4424716;32;19972;-82
2023/04/01 07:18:23;;;;;;;;;;;;;;;;;;4424600;32;19932;-83
2023/04/01 07:20:48;;;;;;;;;;;;;;;;;;4439888;32;20345;-82
2023/04/01 07:23:13;;;;;;;;;;;;;;;;;;4428466;32;19921;-83
2023/04/01 07:25:39;;;;;;;;;;;;;;;;;;4442744;32;19946;-83
2023/04/01 07:28:05;;;;;;;;;;;;;;;;;;4424323;32;19933;-83
2023/04/01 07:30:30;;;;;;;;;;;;;;;;;;4437921;32;19948;-83
2023/04/01 07:32:55;;;;;;;;;;;;;;;;;;4423665;32;20314;-83
2023/04/01 07:35:20;;;;;;;;;;;;;;;;;;4423758;32;19951;-83
2023/04/01 07:37:46;;;;;;;;;;;;;;;;;;4437444;32;19955;-83
2023/04/01 07:40:11;;;;;;;;;;;;;;;;;;4423383;32;19937;-82
2023/04/01 07:42:36;;;;;;;;;;;;;;;;;;4423512;32;19948;-81
2023/04/01 07:45:01;;;;;;;;;;;;;;;;;;4423210;32;19933;-81
2023/04/01 07:47:26;;;;;;;;;;;;;;;;;;4423305;32;19974;-80
2023/04/01 07:49:52;;;;;;;;;;;;;;;;;;4437255;32;19964;-81
2023/04/01 07:52:17;;;;;;;;;;;;;;;;;;4423548;32;19952;-81
2023/04/01 07:54:42;;;;;;;;;;;;;;;;;;4425182;32;19951;-81
2023/04/01 07:57:07;;;;;;;;;;;;;;;;;;4442954;32;19932;-81
2023/04/01 07:59:32;;;;;;;;;;;;;;;;;;4437285;32;19975;-82
2023/04/01 08:01:57;;;;;;;;;;;;;;;;;;4423147;32;19941;-82
2023/04/01 08:04:23;;;;;;;;;;;;;;;;;;4422986;32;20012;-81
2023/04/01 08:06:48;;;;;;;;;;;;;;;;;;4423132;32;19948;-82
2023/04/01 08:09:13;;;;;;;;;;;;;;;;;;4423560;32;19989;-82
2023/04/01 08:11:38;;;;;;;;;;;;;;;;;;4437641;32;19972;-82
2023/04/01 08:14:03;;;;;;;;;;;;;;;;;;4424872;32;19975;-81
2023/04/01 08:16:28;;;;;;;;;;;;;;;;;;4443770;32;20006;-81
2023/04/01 08:18:53;;;;;;;;;;;;;;;;;;4437369;32;19932;-82
2023/04/01 08:21:18;;;;;;;;;;;;;;;;;;4427743;32;19972;-81
2023/04/01 08:23:44;;;;;;;;;;;;;;;;;;4423863;32;19936;-82
2023/04/01 08:26:11;;;;;;;;;;;;;;;;;;4423129;32;19948;-81
2023/04/01 08:28:36;;;;;;;;;;;;;;;;;;4423139;32;19947;-80
2023/04/01 08:31:01;;;;;;;;;;;;;;;;;;4412676;32;19973;-82
2023/04/01 08:33:26;;;;;;;;;;;;;;;;;;4422396;32;19937;-82
2023/04/01 08:35:52;;;;;;;;;;;;;;;;;;4423412;32;20266;-82
2023/04/01 08:38:17;;;;;;;;;;;;;;;;;;4423419;32;19937;-82
2023/04/01 08:40:42;;;;;;;;;;;;;;;;;;4428897;32;20308;-82
2023/04/01 08:43:07;;;;;;;;;;;;;;;;;;4423327;32;19934;-83
2023/04/01 08:45:35;;;;;;;;;;;;;;;;;;4428156;32;19981;-81
2023/04/01 08:48:01;;;;;;;;;;;;;;;;;;4432275;32;20034;-81
2023/04/01 08:50:26;;;;;;;;;;;;;;;;;;4428500;32;19929;-82
2023/04/01 08:52:51;;;;;;;;;;;;;;;;;;4426645;32;19941;-82
2023/04/01 08:55:16;;;;;;;;;;;;;;;;;;4421527;32;19933;-82
2023/04/01 08:57:42;;;;;;;;;;;;;;;;;;4422411;32;19937;-82
2023/04/01 09:00:08;;;;;;;;;;;;;;;;;;4422604;32;19987;-81
2023/04/01 09:02:34;;;;;;;;;;;;;;;;;;4423932;32;19974;-82
2023/04/01 09:04:59;;;;;;;;;;;;;;;;;;4422924;32;19972;-81
2023/04/01 09:07:24;;;;;;;;;;;;;;;;;;4422211;32;19970;-82
2023/04/01 09:09:49;;;;;;;;;;;;;;;;;;4421337;32;19937;-86
2023/04/01 09:12:15;;;;;;;;;;;;;;;;;;4426095;32;19941;-82
2023/04/01 09:14:40;;;;;;;;;;;;;;;;;;4427444;32;19963;-83
2023/04/01 09:17:05;;;;;;;;;;;;;;;;;;4421738;32;19948;-82
2023/04/01 09:19:30;;;;;;;;;;;;;;;;;;4420465;32;19993;-82
2023/04/01 09:21:59;;;;;;;;;;;;;;;;;;4420979;32;19948;-83
2023/04/01 09:24:24;;;;;;;;;;;;;;;;;;4420553;32;20322;-83
2023/04/01 09:26:49;;;;;;;;;;;;;;;;;;4420450;32;20306;-83
2023/04/01 09:29:14;;;;;;;;;;;;;;;;;;4420050;32;19943;-83
2023/04/01 09:31:39;;;;;;;;;;;;;;;;;;4420961;32;19984;-83
2023/04/01 09:34:04;;;;;;;;;;;;;;;;;;4421103;32;19938;-82
2023/04/01 09:36:30;;;;;;;;;;;;;;;;;;4424165;32;19984;-82
2023/04/01 09:38:55;;;;;;;;;;;;;;;;;;4433843;32;19949;-82
2023/04/01 09:41:21;;;;;;;;;;;;;;;;;;4433304;32;20318;-82
2023/04/01 09:43:47;;;;;;;;;;;;;;;;;;4427289;32;19937;-82
2023/04/01 09:46:13;;;;;;;;;;;;;;;;;;4424104;32;19948;-82
2023/04/01 09:48:39;;;;;;;;;;;;;;;;;;4424200;32;19977;-83
2023/04/01 09:51:05;;;;;;;;;;;;;;;;;;4423149;32;19929;-82
2023/04/01 09:53:30;;;;;;;;;;;;;;;;;;4424194;32;19951;-81
2023/04/01 09:55:55;;;;;;;;;;;;;;;;;;4426184;32;19954;-81
2023/04/01 09:58:20;;;;;;;;;;;;;;;;;;4424734;32;19933;-81
2023/04/01 10:00:45;;;;;;;;;;;;;;;;;;4423120;32;19948;-82
2023/04/01 10:03:10;;;;;;;;;;;;;;;;;;4422859;32;19952;-82
2023/04/01 10:05:35;;;;;;;;;;;;;;;;;;4423916;32;19952;-82
2023/04/01 10:08:00;;;;;;;;;;;;;;;;;;4417578;32;19941;-81
2023/04/01 10:10:28;;;;;;;;;;;;;;;;;;4419730;32;20023;-81
2023/04/01 10:13:03;;;;;;;;;;;;;;;;;;4424453;32;19947;-80
2023/04/01 10:15:33;;;;;;;;;;;;;;;;;;4424607;32;20024;-79
2023/04/01 10:17:58;;;;;;;;;;;;;;;;;;4417575;32;19968;-80
2023/04/01 10:20:23;;;;;;;;;;;;;;;;;;4423459;32;19971;-81
2023/04/01 10:22:48;;;;;;;;;;;;;;;;;;4415674;32;19989;-82
2023/04/01 10:25:14;;;;;;;;;;;;;;;;;;4433355;32;19955;-79
2023/04/01 10:27:39;;;;;;;;;;;;;;;;;;4421960;32;19934;-81
2023/04/01 10:30:04;;;;;;;;;;;;;;;;;;4413017;32;20005;-80
2023/04/01 10:32:31;;;;;;;;;;;;;;;;;;4415992;32;19941;-81
2023/04/01 10:34:56;;;;;;;;;;;;;;;;;;4416906;32;20216;-80
2023/04/01 10:37:21;;;;;;;;;;;;;;;;;;4422693;32;20310;-81
2023/04/01 10:39:46;;;;;;;;;;;;;;;;;;4420095;32;19971;-81
2023/04/01 10:42:11;;;;;;;;;;;;;;;;;;4416574;32;19942;-82
2023/04/01 10:44:36;;;;;;;;;;;;;;;;;;4418453;32;19952;-82
2023/04/01 10:47:02;;;;;;;;;;;;;;;;;;4415669;32;19949;-81
2023/04/01 10:49:27;;;;;;;;;;;;;;;;;;4416589;32;19957;-82
2023/04/01 10:51:58;;;;;;;;;;;;;;;;;;4423143;32;20337;-83
2023/04/01 10:54:24;;;;;;;;;;;;;;;;;;4412636;32;19938;-82
2023/04/01 10:56:55;;;;;;;;;;;;;;;;;;4418919;32;19937;-84
2023/04/01 10:59:20;;;;;;;;;;;;;;;;;;4423999;32;19945;-84
2023/04/01 11:01:45;;;;;;;;;;;;;;;;;;4427677;32;19955;-83
2023/04/01 11:04:11;;;;;;;;;;;;;;;;;;4429480;32;20318;-85
2023/04/01 11:06:36;;;;;;;;;;;;;;;;;;4424360;32;19939;-84
2023/04/01 11:09:01;;;;;;;;;;;;;;;;;;4424382;32;19951;-82
2023/04/01 11:11:26;;;;;;;;;;;;;;;;;;4432628;32;19945;-84
2023/04/01 11:13:53;;;;;;;;;;;;;;;;;;4436172;32;19941;-83
2023/04/01 11:16:19;;;;;;;;;;;;;;;;;;4419209;32;19980;-84
2023/04/01 11:18:45;;;;;;;;;;;;;;;;;;4436268;32;19982;-79
2023/04/01 11:21:10;;;;;;;;;;;;;;;;;;4443256;32;19941;-82
2023/04/01 11:23:35;;;;;;;;;;;;;;;;;;4426044;32;19953;-83
2023/04/01 11:26:00;;;;;;;;;;;;;;;;;;4426513;32;19951;-83
2023/04/01 11:28:25;;;;;;;;;;;;;;;;;;4423463;32;19941;-81
2023/04/01 11:30:51;;;;;;;;;;;;;;;;;;4436636;32;19929;-81
2023/04/01 11:33:16;;;;;;;;;;;;;;;;;;4431117;32;19933;-81
2023/04/01 11:35:41;;;;;;;;;;;;;;;;;;4421313;32;19999;-82
2023/04/01 11:38:06;;;;;;;;;;;;;;;;;;4427129;32;19936;-82
2023/04/01 11:40:33;;;;;;;;;;;;;;;;;;4422533;32;19985;-80
2023/04/01 11:42:58;;;;;;;;;;;;;;;;;;4423703;32;19951;-80
2023/04/01 11:45:25;;;;;;;;;;;;;;;;;;4425167;32;19945;-78
2023/04/01 11:47:50;;;;;;;;;;;;;;;;;;4437298;32;20113;-79
2023/04/01 11:50:15;;;;;;;;;;;;;;;;;;4423650;32;20071;-80
2023/04/01 11:52:40;;;;;;;;;;;;;;;;;;4424088;32;19992;-79
2023/04/01 11:55:06;;;;;;;;;;;;;;;;;;4438241;32;19971;-78
2023/04/01 11:57:31;;;;;;;;;;;;;;;;;;4437520;32;19937;-80
2023/04/01 11:59:56;;;;;;;;;;;;;;;;;;4424758;32;19936;-81
2023/04/01 12:02:21;;;;;;;;;;;;;;;;;;4428545;32;19952;-80
2023/04/01 12:04:48;;;;;;;;;;;;;;;;;;4423460;32;20316;-79
2023/04/01 12:07:14;;;;;;;;;;;;;;;;;;4420630;32;19957;-81
2023/04/01 12:09:40;;;;;;;;;;;;;;;;;;4422465;32;19938;-81
2023/04/01 12:12:05;;;;;;;;;;;;;;;;;;4420735;32;19968;-81
2023/04/01 12:14:30;;;;;;;;;;;;;;;;;;4420887;32;19992;-81
2023/04/01 12:16:55;;;;;;;;;;;;;;;;;;4424191;32;19944;-80
2023/04/01 12:19:20;;;;;;;;;;;;;;;;;;4430332;32;19973;-80
2023/04/01 12:21:46;;;;;;;;;;;;;;;;;;4442611;32;19974;-79
2023/04/01 12:24:11;;;;;;;;;;;;;;;;;;4431236;32;19958;-79
2023/04/01 12:26:36;;;;;;;;;;;;;;;;;;4441292;32;20124;-79
2023/04/01 12:29:01;;;;;;;;;;;;;;;;;;4422936;32;19952;-79
2023/04/01 12:31:28;;;;;;;;;;;;;;;;;;4426685;32;19951;-79
2023/04/01 12:33:53;;;;;;;;;;;;;;;;;;4433268;32;20286;-80
2023/04/01 12:36:18;;;;;;;;;;;;;;;;;;4428602;32;19944;-79
2023/04/01 12:38:44;;;;;;;;;;;;;;;;;;4437702;32;20035;-80
2023/04/01 12:41:10;;;;;;;;;;;;;;;;;;4437798;32;19992;-79
2023/04/01 12:43:35;;;;;;;;;;;;;;;;;;4423033;32;19943;-78
2023/04/01 12:46:00;;;;;;;;;;;;;;;;;;4422970;32;19937;-78
2023/04/01 12:48:25;;;;;;;;;;;;;;;;;;4437491;32;20312;-79
2023/04/01 12:50:51;;;;;;;;;;;;;;;;;;4436429;32;19964;-79
2023/04/01 12:53:16;;;;;;;;;;;;;;;;;;4423623;32;19949;-79
2023/04/01 12:55:42;;;;;;;;;;;;;;;;;;4423409;32;19947;-80
2023/04/01 12:58:07;;;;;;;;;;;;;;;;;;4437127;32;19964;-80
2023/04/01 13:00:32;;;;;;;;;;;;;;;;;;4437329;32;19937;-79
2023/04/01 13:02:57;;;;;;;;;;;;;;;;;;4422694;32;20344;-80
2023/04/01 13:05:23;;;;;;;;;;;;;;;;;;4437024;32;20354;-78
2023/04/01 13:07:48;;;;;;;;;;;;;;;;;;4418311;32;20306;-76
2023/04/01 13:10:13;;;;;;;;;;;;;;;;;;4417357;32;20526;-76
2023/04/01 13:12:38;;;;;;;;;;;;;;;;;;4421489;32;20308;-75
2023/04/01 13:15:03;;;;;;;;;;;;;;;;;;4423866;32;19959;-75
2023/04/01 13:17:28;;;;;;;;;;;;;;;;;;4422188;32;20106;-77
2023/04/01 13:19:53;;;;;;;;;;;;;;;;;;4435954;32;19944;-75
2023/04/01 13:22:18;;;;;;;;;;;;;;;;;;4436745;32;19976;-76
2023/04/01 13:24:43;;;;;;;;;;;;;;;;;;4421498;32;19945;-75
2023/04/01 13:27:09;;;;;;;;;;;;;;;;;;4435926;32;20366;-75
2023/04/01 13:29:34;;;;;;;;;;;;;;;;;;4435386;32;19960;-75
2023/04/01 13:31:59;;;;;;;;;;;;;;;;;;4435842;32;19941;-75
2023/04/01 13:34:24;;;;;;;;;;;;;;;;;;4421344;32;19979;-75
2023/04/01 13:36:49;;;;;;;;;;;;;;;;;;4421421;32;19971;-75
2023/04/01 13:39:15;;;;;;;;;;;;;;;;;;4435856;32;19967;-76
2023/04/01 13:41:40;;;;;;;;;;;;;;;;;;4435939;32;19932;-75
2023/04/01 13:44:05;;;;;;;;;;;;;;;;;;4436496;32;19948;-76
2023/04/01 13:46:30;;;;;;;;;;;;;;;;;;4421946;32;20333;-76
2023/04/01 13:48:55;;;;;;;;;;;;;;;;;;4422003;32;19940;-75
2023/04/01 13:51:20;;;;;;;;;;;;;;;;;;4427715;32;19994;-76
2023/04/01 13:53:45;;;;;;;;;;;;;;;;;;4421501;32;19944;-76
2023/04/01 13:56:10;;;;;;;;;;;;;;;;;;4422282;32;20381;-75
2023/04/01 13:58:35;;;;;;;;;;;;;;;;;;4421566;32;20315;-76
2023/04/01 14:01:01;;;;;;;;;;;;;;;;;;4421445;32;19937;-76
2023/04/01 14:03:26;;;;;;;;;;;;;;;;;;4435184;32;19941;-76
2023/04/01 14:05:51;;;;;;;;;;;;;;;;;;4422497;32;19941;-76
2023/04/01 14:08:16;;;;;;;;;;;;;;;;;;4421197;32;19960;-75
2023/04/01 14:10:41;;;;;;;;;;;;;;;;;;4421610;32;20276;-77
2023/04/01 14:13:06;;;;;;;;;;;;;;;;;;4436177;32;19945;-76
2023/04/01 14:15:31;;;;;;;;;;;;;;;;;;4421451;32;19978;-77
2023/04/01 14:17:56;;;;;;;;;;;;;;;;;;4420126;32;20381;-76
2023/04/01 14:20:22;;;;;;;;;;;;;;;;;;4414981;32;19940;-76
2023/04/01 14:22:47;;;;;;;;;;;;;;;;;;4422631;32;19971;-75
2023/04/01 14:25:12;;;;;;;;;;;;;;;;;;4416652;32;20289;-75
2023/04/01 14:27:37;;;;;;;;;;;;;;;;;;4418935;32;20293;-76
2023/04/01 14:30:02;;;;;;;;;;;;;;;;;;4424029;32;19993;-75
2023/04/01 14:32:27;;;;;;;;;;;;;;;;;;4438595;32;19982;-76
2023/04/01 14:34:52;;;;;;;;;;;;;;;;;;4430795;32;19948;-74
2023/04/01 14:37:17;;;;;;;;;;;;;;;;;;4442592;32;19954;-76
2023/04/01 14:39:42;;;;;;;;;;;;;;;;;;4430252;32;19981;-76
2023/04/01 14:42:07;;;;;;;;;;;;;;;;;;4426918;32;19980;-78
2023/04/01 14:44:33;;;;;;;;;;;;;;;;;;4426360;32;19937;-76
2023/04/01 14:46:58;;;;;;;;;;;;;;;;;;4432592;32;19970;-78
2023/04/01 14:49:23;;;;;;;;;;;;;;;;;;4432069;32;20002;-76
2023/04/01 14:51:48;;;;;;;;;;;;;;;;;;4415042;32;20400;-76
2023/04/01 14:54:13;;;;;;;;;;;;;;;;;;4426735;32;19941;-76
2023/04/01 14:56:38;;;;;;;;;;;;;;;;;;4423721;32;20007;-76
2023/04/01 14:59:03;;;;;;;;;;;;;;;;;;4438647;32;20269;-77
2023/04/01 15:01:28;;;;;;;;;;;;;;;;;;4437619;32;19964;-77
2023/04/01 15:03:54;;;;;;;;;;;;;;;;;;4419363;32;20323;-76
2023/04/01 15:06:19;;;;;;;;;;;;;;;;;;4433218;32;19936;-77
2023/04/01 15:08:45;;;;;;;;;;;;;;;;;;4426283;32;20338;-77
2023/04/01 15:11:10;;;;;;;;;;;;;;;;;;4422215;32;19933;-77
2023/04/01 15:13:35;;;;;;;;;;;;;;;;;;4421187;32;19957;-78
2023/04/01 15:16:00;;;;;;;;;;;;;;;;;;4421152;32;19937;-78
2023/04/01 15:18:25;;;;;;;;;;;;;;;;;;4423476;32;19972;-77
2023/04/01 15:20:50;;;;;;;;;;;;;;;;;;4422620;32;19945;-77
2023/04/01 15:23:15;;;;;;;;;;;;;;;;;;4422766;32;19933;-77
2023/04/01 15:25:40;;;;;;;;;;;;;;;;;;4423258;32;19994;-78
2023/04/01 15:28:06;;;;;;;;;;;;;;;;;;4423849;32;19940;-77
2023/04/01 15:30:31;;;;;;;;;;;;;;;;;;4424824;32;19959;-79
2023/04/01 15:32:56;;;;;;;;;;;;;;;;;;4409568;32;19979;-80
2023/04/01 15:35:21;;;;;;;;;;;;;;;;;;4424129;32;19942;-79
2023/04/01 15:37:46;;;;;;;;;;;;;;;;;;4424500;32;19937;-80
2023/04/01 15:40:12;;;;;;;;;;;;;;;;;;4430924;32;20273;-77
2023/04/01 15:42:37;;;;;;;;;;;;;;;;;;4418074;32;19941;-79
2023/04/01 15:45:06;;;;;;;;;;;;;;;;;;4436373;32;19929;-80
2023/04/01 15:47:31;;;;;;;;;;;;;;;;;;4421238;32;19952;-79
2023/04/01 15:49:56;;;;;;;;;;;;;;;;;;4417985;32;19973;-79
2023/04/01 15:52:21;;;;;;;;;;;;;;;;;;4431926;32;19943;-78
2023/04/01 15:54:47;;;;;;;;;;;;;;;;;;4423690;32;19933;-81
2023/04/01 15:57:12;;;;;;;;;;;;;;;;;;4422993;32;20322;-79
2023/04/01 15:59:37;;;;;;;;;;;;;;;;;;4424763;32;19937;-81
2023/04/01 16:02:02;;;;;;;;;;;;;;;;;;4422852;32;19933;-81
2023/04/01 16:04:27;;;;;;;;;;;;;;;;;;4416422;32;19941;-79
2023/04/01 16:06:52;;;;;;;;;;;;;;;;;;4425511;32;19937;-81
2023/04/01 16:09:17;;;;;;;;;;;;;;;;;;4440457;32;19937;-80
2023/04/01 16:11:43;;;;;;;;;;;;;;;;;;4439353;32;19937;-80
2023/04/01 16:14:08;;;;;;;;;;;;;;;;;;4428420;32;19941;-81
2023/04/01 16:16:33;;;;;;;;;;;;;;;;;;4439349;32;19932;-80
2023/04/01 16:18:58;;;;;;;;;;;;;;;;;;4439004;32;20036;-80
2023/04/01 16:21:23;;;;;;;;;;;;;;;;;;4438315;32;19937;-80
2023/04/01 16:23:50;;;;;;;;;;;;;;;;;;4423584;32;19968;-80
2023/04/01 16:26:15;;;;;;;;;;;;;;;;;;4437224;32;19940;-79
2023/04/01 16:28:40;;;;;;;;;;;;;;;;;;4423558;32;19960;-80
2023/04/01 16:31:05;;;;;;;;;;;;;;;;;;4442126;32;19949;-80